ROKJ(METAR)
05/30 18:00
ROKJ 300900Z 24007KT 9999 FEW007 FEW030 SCTXXX 28/26 Q1010 RMK
A2984=
戻る
トップページへ戻る
IMOC Co,.Ltd.